Time;durP1;ratioP1;P1;durP2;ratioP2;P2;SDS_P1;SDS_P2;PMS_P1;PMS_P2;Temp;Humidity;BMP_temperature;BMP_pressure;BME280_temperature;BME280_humidity;BME280_pressure;Samples;Min_cycle;Max_cycle;Signal;HPM_P1;HPM_P2
2020/12/22 00:02:13;;;;;;;1.30;1.30;;;8.40;98.00;;;;;;4994869;28;20464;-68
2020/12/22 00:04:39;;;;;;;1.10;0.90;;;8.30;98.00;;;;;;4992791;28;20836;-67
2020/12/22 00:07:07;;;;;;;1.90;1.40;;;8.30;98.00;;;;;;4995386;28;20849;-68
2020/12/22 00:09:33;;;;;;;1.60;1.33;;;8.30;98.00;;;;;;4992418;28;20470;-68
2020/12/22 00:12:00;;;;;;;1.10;1.10;;;8.50;98.00;;;;;;4994351;28;20457;-67
2020/12/22 00:14:26;;;;;;;1.93;1.43;;;8.50;98.00;;;;;;4992105;28;20522;-68
2020/12/22 00:16:52;;;;;;;3.73;2.20;;;8.70;98.00;;;;;;4994369;28;21052;-68
2020/12/22 00:19:19;;;;;;;1.40;1.10;;;8.70;98.00;;;;;;4992348;28;20861;-69
2020/12/22 00:21:45;;;;;;;1.53;1.50;;;8.70;98.00;;;;;;4994733;28;20473;-68
2020/12/22 00:24:13;;;;;;;1.30;1.20;;;8.70;98.00;;;;;;4992352;28;20495;-69
2020/12/22 00:26:39;;;;;;;1.10;1.07;;;8.80;98.00;;;;;;4994521;28;20873;-68
2020/12/22 00:29:06;;;;;;;1.10;0.90;;;8.90;98.00;;;;;;4992682;28;20463;-68
2020/12/22 00:31:36;;;;;;;1.37;1.17;;;9.00;98.00;;;;;;4994374;28;20466;-70
2020/12/22 00:34:02;;;;;;;1.10;0.90;;;9.20;98.00;;;;;;4991522;28;20485;-67
2020/12/22 00:36:30;;;;;;;1.10;1.00;;;9.30;98.00;;;;;;4994336;28;20958;-67
2020/12/22 00:38:56;;;;;;;1.10;0.90;;;9.40;98.00;;;;;;4991849;28;20513;-69
2020/12/22 00:41:24;;;;;;;1.67;1.10;;;9.40;98.00;;;;;;4994280;28;20471;-69
2020/12/22 00:43:50;;;;;;;2.40;1.33;;;9.50;98.00;;;;;;4992354;28;20468;-68
2020/12/22 00:46:17;;;;;;;1.10;0.90;;;9.60;98.00;;;;;;4994168;28;20461;-68
2020/12/22 00:48:46;;;;;;;1.10;0.90;;;9.60;98.00;;;;;;4991886;28;20470;-70
2020/12/22 00:51:20;;;;;;;1.20;1.00;;;9.70;98.00;;;;;;4994092;28;20678;-68
2020/12/22 00:53:46;;;;;;;1.10;0.90;;;9.80;98.00;;;;;;4991911;28;20469;-68
2020/12/22 00:56:13;;;;;;;1.10;0.90;;;9.90;98.00;;;;;;4993863;28;20469;-68
2020/12/22 00:58:46;;;;;;;1.10;1.00;;;10.00;98.00;;;;;;4991795;28;20499;-67
2020/12/22 01:01:13;;;;;;;1.10;1.00;;;10.00;98.00;;;;;;4993724;28;20556;-69
2020/12/22 01:03:39;;;;;;;1.10;1.00;;;10.10;98.00;;;;;;4991806;28;20514;-68
2020/12/22 01:06:06;;;;;;;1.10;0.90;;;10.10;98.00;;;;;;4994015;28;20466;-70
2020/12/22 01:08:38;;;;;;;1.10;0.90;;;10.10;98.00;;;;;;4991678;28;20482;-68
2020/12/22 01:11:04;;;;;;;1.20;1.10;;;10.20;98.00;;;;;;4993685;28;20463;-68
2020/12/22 01:13:31;;;;;;;1.10;0.87;;;10.20;98.00;;;;;;4991368;28;20471;-67
2020/12/22 01:15:59;;;;;;;1.10;0.90;;;10.30;98.00;;;;;;4993931;28;20943;-68
2020/12/22 01:18:25;;;;;;;1.20;1.17;;;10.30;98.00;;;;;;4993531;28;20457;-69
2020/12/22 01:20:52;;;;;;;1.10;0.90;;;10.40;98.00;;;;;;4992073;28;20467;-68
2020/12/22 01:23:18;;;;;;;1.10;0.90;;;10.40;98.00;;;;;;4993353;28;20471;-69
2020/12/22 01:25:45;;;;;;;1.10;1.00;;;10.40;98.00;;;;;;4991465;28;20471;-69
2020/12/22 01:28:12;;;;;;;1.10;0.97;;;10.40;98.00;;;;;;4993597;28;20470;-68
2020/12/22 01:30:38;;;;;;;1.10;0.90;;;10.50;98.00;;;;;;4989939;28;20477;-68
2020/12/22 01:33:06;;;;;;;1.57;0.97;;;10.50;98.00;;;;;;4993462;28;20488;-69
2020/12/22 01:35:33;;;;;;;1.10;0.90;;;10.60;98.00;;;;;;4991616;28;20467;-67
2020/12/22 01:38:00;;;;;;;1.10;0.90;;;10.60;98.00;;;;;;4993333;28;20463;-68
2020/12/22 01:40:26;;;;;;;1.63;1.17;;;10.60;98.00;;;;;;4989943;28;20485;-69
2020/12/22 01:42:53;;;;;;;1.10;1.00;;;10.70;98.00;;;;;;4991888;28;20805;-68
2020/12/22 01:45:19;;;;;;;1.67;1.20;;;10.70;98.00;;;;;;4991297;28;20452;-67
2020/12/22 01:47:48;;;;;;;1.33;1.20;;;10.70;98.00;;;;;;4993092;28;20470;-69
2020/12/22 01:50:18;;;;;;;1.10;0.90;;;10.70;98.00;;;;;;4991020;28;20467;-67
2020/12/22 01:52:45;;;;;;;1.20;1.00;;;10.70;98.00;;;;;;4992943;28;20460;-68
2020/12/22 01:55:12;;;;;;;1.10;0.90;;;10.80;98.00;;;;;;4990966;28;20463;-69
2020/12/22 01:57:39;;;;;;;1.10;1.00;;;10.80;98.00;;;;;;4992777;28;20457;-68
2020/12/22 02:00:06;;;;;;;1.10;0.90;;;10.90;98.00;;;;;;4990901;28;20484;-69
2020/12/22 02:02:33;;;;;;;1.10;0.90;;;10.90;98.00;;;;;;4992639;28;20467;-69
2020/12/22 02:05:01;;;;;;;1.10;0.90;;;10.90;98.00;;;;;;4990690;28;20462;-70
2020/12/22 02:07:28;;;;;;;1.10;0.90;;;11.00;98.00;;;;;;4992527;28;20490;-68
2020/12/22 02:09:56;;;;;;;1.10;0.90;;;11.00;98.00;;;;;;4990408;28;21052;-68
2020/12/22 02:12:25;;;;;;;1.10;0.90;;;11.00;98.00;;;;;;4992454;28;20453;-68
2020/12/22 02:14:52;;;;;;;1.10;0.90;;;11.00;98.00;;;;;;4989948;28;20884;-68
2020/12/22 02:17:18;;;;;;;1.10;1.00;;;11.10;98.00;;;;;;4992415;28;20468;-69
2020/12/22 02:19:45;;;;;;;1.10;0.90;;;11.10;98.00;;;;;;4989622;28;20543;-69
2020/12/22 02:22:12;;;;;;;1.10;0.90;;;11.10;98.00;;;;;;4992313;28;20474;-68
2020/12/22 02:24:39;;;;;;;1.10;0.90;;;11.10;98.00;;;;;;4988682;28;20461;-68
2020/12/22 02:27:06;;;;;;;1.10;0.90;;;11.10;98.00;;;;;;4992294;28;20471;-68
2020/12/22 02:29:33;;;;;;;1.10;0.90;;;11.20;98.00;;;;;;4988915;28;20464;-70
2020/12/22 02:31:59;;;;;;;1.10;1.00;;;11.20;98.00;;;;;;4992294;28;20456;-68
2020/12/22 02:34:26;;;;;;;1.10;1.00;;;11.20;98.00;;;;;;4972971;28;20582;-68
2020/12/22 02:36:53;;;;;;;1.10;0.90;;;11.30;98.00;;;;;;4992573;28;20456;-69
2020/12/22 02:39:20;;;;;;;1.37;1.10;;;11.30;98.00;;;;;;4990350;28;20498;-69
2020/12/22 02:41:47;;;;;;;1.30;1.10;;;11.40;98.00;;;;;;4992208;28;20462;-67
2020/12/22 02:44:14;;;;;;;1.10;0.90;;;11.40;98.00;;;;;;4988578;28;20530;-66
2020/12/22 02:46:40;;;;;;;1.10;0.90;;;11.40;98.00;;;;;;4991981;28;20464;-68
2020/12/22 02:49:07;;;;;;;1.10;0.90;;;11.40;98.00;;;;;;4989921;28;20816;-70
2020/12/22 02:51:34;;;;;;;1.20;1.00;;;11.40;98.00;;;;;;4992236;28;20467;-69
2020/12/22 02:54:00;;;;;;;1.10;0.90;;;11.40;98.00;;;;;;4990201;28;20507;-68
2020/12/22 02:56:30;;;;;;;1.10;0.90;;;11.40;98.00;;;;;;4992015;28;20998;-68
2020/12/22 02:58:57;;;;;;;1.10;0.90;;;11.40;98.00;;;;;;4989689;28;21097;-67
2020/12/22 03:01:23;;;;;;;1.13;1.00;;;11.40;98.00;;;;;;4991944;28;20487;-68
2020/12/22 03:03:50;;;;;;;1.10;0.90;;;11.40;98.00;;;;;;4988629;28;20468;-70
2020/12/22 03:06:16;;;;;;;1.10;0.90;;;11.50;98.00;;;;;;4991900;28;20461;-68
2020/12/22 03:08:44;;;;;;;1.10;1.10;;;11.50;98.00;;;;;;4990134;28;20492;-68
2020/12/22 03:11:10;;;;;;;1.10;0.90;;;11.50;98.00;;;;;;4991808;28;20606;-68
2020/12/22 03:13:38;;;;;;;1.10;1.00;;;11.50;98.00;;;;;;4991773;28;20456;-68
2020/12/22 03:16:04;;;;;;;1.10;1.00;;;11.60;98.00;;;;;;4990178;28;20940;-68
2020/12/22 03:18:31;;;;;;;1.10;0.90;;;11.60;98.00;;;;;;4990511;28;20457;-67
2020/12/22 03:20:57;;;;;;;1.10;1.00;;;11.60;98.00;;;;;;4990036;28;20469;-68
2020/12/22 03:23:23;;;;;;;1.13;1.00;;;11.60;98.00;;;;;;4991699;28;20473;-69
2020/12/22 03:25:50;;;;;;;1.17;1.00;;;11.70;98.00;;;;;;4989557;28;20460;-68
2020/12/22 03:28:16;;;;;;;1.10;0.90;;;11.70;98.00;;;;;;4995310;28;20493;-70
2020/12/22 03:30:44;;;;;;;1.17;0.90;;;11.70;98.00;;;;;;4993439;28;20459;-68
2020/12/22 03:33:10;;;;;;;1.20;1.00;;;11.70;98.00;;;;;;4995496;28;20886;-69
2020/12/22 03:35:38;;;;;;;1.20;0.90;;;11.70;98.00;;;;;;4993405;28;20467;-69
2020/12/22 03:38:05;;;;;;;1.10;1.00;;;11.70;98.00;;;;;;4995466;28;20478;-67
2020/12/22 03:40:33;;;;;;;1.20;0.90;;;11.70;98.00;;;;;;4993241;28;20510;-67
2020/12/22 03:42:59;;;;;;;1.17;0.90;;;11.70;98.00;;;;;;4995067;28;20479;-69
2020/12/22 03:45:26;;;;;;;1.20;0.90;;;11.70;98.00;;;;;;4993175;28;20467;-69
2020/12/22 03:47:53;;;;;;;1.20;1.10;;;11.80;98.00;;;;;;4995445;28;20463;-69
2020/12/22 03:50:20;;;;;;;1.93;1.57;;;11.80;98.00;;;;;;4993265;28;20510;-68
2020/12/22 03:52:46;;;;;;;1.20;0.90;;;11.80;98.00;;;;;;4995271;28;20487;-69
2020/12/22 03:55:13;;;;;;;1.20;0.90;;;11.90;98.00;;;;;;4993070;28;21112;-68
2020/12/22 03:57:40;;;;;;;1.20;0.90;;;11.90;98.00;;;;;;4995341;28;20522;-69
2020/12/22 04:00:07;;;;;;;1.20;0.90;;;11.90;98.00;;;;;;4992890;28;20485;-68
2020/12/22 04:02:34;;;;;;;1.20;1.00;;;11.90;98.00;;;;;;4995070;28;20514;-68
2020/12/22 04:05:01;;;;;;;1.20;0.90;;;11.90;98.00;;;;;;4992991;28;20973;-69
2020/12/22 04:07:28;;;;;;;1.20;1.00;;;11.90;98.00;;;;;;4994959;28;20527;-68
2020/12/22 04:09:54;;;;;;;1.20;0.90;;;11.90;98.00;;;;;;4992819;28;20511;-68
2020/12/22 04:12:21;;;;;;;1.20;0.90;;;11.90;98.00;;;;;;4994917;28;20519;-68
2020/12/22 04:14:48;;;;;;;1.20;0.90;;;11.90;98.00;;;;;;4992719;28;20457;-69
2020/12/22 04:17:14;;;;;;;1.20;1.00;;;11.90;98.00;;;;;;4994770;28;20467;-68
2020/12/22 04:19:41;;;;;;;1.20;0.90;;;11.90;98.00;;;;;;4992635;28;20482;-68
2020/12/22 04:22:08;;;;;;;1.20;1.00;;;11.90;98.00;;;;;;4994558;28;20461;-69
2020/12/22 04:24:35;;;;;;;1.20;0.90;;;11.90;98.00;;;;;;4974905;28;20464;-68
2020/12/22 04:27:05;;;;;;;1.20;0.90;;;11.90;98.00;;;;;;4994441;28;20464;-69
2020/12/22 04:29:31;;;;;;;1.20;0.90;;;12.00;98.00;;;;;;4992325;28;20456;-68
2020/12/22 04:31:58;;;;;;;1.20;0.90;;;12.00;98.00;;;;;;4994482;28;20465;-67
2020/12/22 04:34:25;;;;;;;1.20;1.00;;;12.00;98.00;;;;;;4992290;28;20475;-68
2020/12/22 04:36:52;;;;;;;1.20;0.90;;;12.10;98.00;;;;;;4992939;28;20469;-69
2020/12/22 04:39:19;;;;;;;1.20;1.00;;;12.10;98.00;;;;;;4991903;28;20583;-68
2020/12/22 04:41:47;;;;;;;1.20;1.00;;;12.10;98.00;;;;;;4994387;28;20469;-69
2020/12/22 04:44:14;;;;;;;1.20;1.07;;;12.10;98.00;;;;;;4991958;28;20507;-69
2020/12/22 04:46:50;;;;;;;1.20;1.10;;;12.20;98.00;;;;;;4994149;28;20464;-68
2020/12/22 04:49:20;;;;;;;1.20;1.00;;;12.20;98.00;;;;;;4991961;28;20461;-68
2020/12/22 04:51:51;;;;;;;1.20;1.00;;;12.20;98.00;;;;;;4993981;28;20470;-69
2020/12/22 04:54:20;;;;;;;1.20;0.90;;;12.30;98.00;;;;;;4990549;28;20519;-69
2020/12/22 04:56:53;;;;;;;1.30;1.10;;;12.30;98.00;;;;;;4994267;28;20456;-69
2020/12/22 04:59:20;;;;;;;1.20;0.90;;;12.30;98.00;;;;;;4991873;28;20496;-70
2020/12/22 05:01:48;;;;;;;1.20;1.00;;;12.30;98.00;;;;;;4992795;28;20460;-69
2020/12/22 05:04:14;;;;;;;1.20;0.93;;;12.30;98.00;;;;;;4992089;28;20474;-68
2020/12/22 05:06:41;;;;;;;1.20;1.00;;;12.30;98.00;;;;;;4993969;28;20507;-67
2020/12/22 05:09:07;;;;;;;1.20;0.90;;;12.30;98.00;;;;;;4991624;28;20457;-69
2020/12/22 05:11:36;;;;;;;1.20;1.00;;;12.30;98.00;;;;;;4993811;28;20460;-69
2020/12/22 05:14:03;;;;;;;1.20;1.00;;;12.30;98.00;;;;;;4991541;28;20523;-67
2020/12/22 05:16:29;;;;;;;1.20;0.90;;;12.30;98.00;;;;;;4993695;28;20464;-69
2020/12/22 05:18:57;;;;;;;1.20;0.90;;;12.30;98.00;;;;;;4990425;28;20491;-68
2020/12/22 05:21:23;;;;;;;1.20;1.00;;;12.40;98.00;;;;;;4993545;28;20944;-69
2020/12/22 05:23:51;;;;;;;1.20;1.10;;;12.40;98.00;;;;;;4993440;28;20472;-69
2020/12/22 05:26:20;;;;;;;1.20;1.00;;;12.30;98.00;;;;;;4992388;28;20943;-68
2020/12/22 05:28:49;;;;;;;1.20;1.00;;;12.30;98.00;;;;;;4993401;28;20497;-69
2020/12/22 05:31:16;;;;;;;1.20;1.00;;;12.40;98.00;;;;;;4991554;28;20484;-70
2020/12/22 05:33:44;;;;;;;1.20;1.00;;;12.40;98.00;;;;;;4993379;28;20856;-68
2020/12/22 05:36:11;;;;;;;1.20;1.00;;;12.40;98.00;;;;;;4991144;28;20540;-69
2020/12/22 05:38:38;;;;;;;1.20;1.00;;;12.40;98.00;;;;;;4993094;28;20461;-69
2020/12/22 05:41:06;;;;;;;1.20;1.00;;;12.40;98.00;;;;;;4990907;28;20461;-69
2020/12/22 05:43:42;;;;;;;1.20;1.00;;;12.40;98.00;;;;;;4993116;28;20548;-70
2020/12/22 05:46:10;;;;;;;1.20;1.00;;;12.40;98.00;;;;;;4990896;28;20463;-70
2020/12/22 05:48:37;;;;;;;1.20;0.90;;;12.40;98.00;;;;;;4992580;28;20457;-69
2020/12/22 05:51:07;;;;;;;1.20;1.00;;;12.40;98.00;;;;;;4990275;28;20465;-69
2020/12/22 05:53:42;;;;;;;1.20;0.90;;;12.40;98.00;;;;;;4992788;28;20464;-69
2020/12/22 05:56:18;;;;;;;1.20;1.00;;;12.50;98.00;;;;;;4991112;28;20486;-68
2020/12/22 05:58:44;;;;;;;1.20;1.10;;;12.50;98.00;;;;;;4992929;28;20479;-69
2020/12/22 06:01:13;;;;;;;1.20;1.00;;;12.40;98.00;;;;;;4990736;28;20464;-68
2020/12/22 06:03:42;;;;;;;1.20;1.00;;;12.50;98.00;;;;;;4992953;28;20457;-68
2020/12/22 06:06:08;;;;;;;1.20;1.00;;;12.50;98.00;;;;;;4990732;28;20801;-68
2020/12/22 06:08:35;;;;;;;1.20;0.90;;;12.50;98.00;;;;;;4991606;28;20518;-69
2020/12/22 06:11:01;;;;;;;1.20;1.00;;;12.50;98.00;;;;;;4990561;28;20460;-69
2020/12/22 06:13:30;;;;;;;1.20;0.90;;;12.60;98.00;;;;;;4992845;28;20940;-68
2020/12/22 06:15:57;;;;;;;1.20;1.00;;;12.50;98.00;;;;;;4990559;28;20464;-68
2020/12/22 06:18:25;;;;;;;1.20;1.00;;;12.60;98.00;;;;;;4992185;28;20466;-69
2020/12/22 06:20:52;;;;;;;1.20;1.00;;;12.60;98.00;;;;;;4989645;28;20521;-69
2020/12/22 06:23:21;;;;;;;1.30;1.10;;;12.60;98.00;;;;;;4991625;28;20499;-67
2020/12/22 06:25:47;;;;;;;1.20;1.00;;;12.70;98.00;;;;;;4989710;28;20460;-68
2020/12/22 06:28:28;;;;;;;1.20;1.00;;;12.70;98.00;;;;;;4992391;28;20462;-68
2020/12/22 06:30:55;;;;;;;1.20;1.00;;;12.70;98.00;;;;;;4990031;28;20518;-70
2020/12/22 06:33:23;;;;;;;1.20;1.00;;;12.70;98.00;;;;;;4992197;28;20463;-69
2020/12/22 06:36:04;;;;;;;3.13;1.20;;;12.70;98.00;;;;;;4990225;28;20464;-68
2020/12/22 06:38:54;;;;;;;1.20;1.00;;;12.70;98.00;;;;;;4992134;28;20453;-71
2020/12/22 06:41:46;;;;;;;1.20;0.90;;;12.70;98.00;;;;;;4990025;28;20923;-68
2020/12/22 06:44:15;;;;;;;1.20;1.00;;;12.70;98.00;;;;;;4990231;28;20948;-68
2020/12/22 06:46:44;;;;;;;1.20;0.90;;;12.70;98.00;;;;;;4991899;28;20472;-69
2020/12/22 06:49:10;;;;;;;1.20;1.00;;;12.70;98.00;;;;;;4990075;28;20548;-69
2020/12/22 06:51:39;;;;;;;1.20;1.00;;;12.80;98.00;;;;;;4992029;28;20464;-68
2020/12/22 06:54:33;;;;;;;1.20;0.90;;;12.80;98.00;;;;;;4990555;28;20457;-68
2020/12/22 06:56:59;;;;;;;1.20;1.00;;;12.80;98.00;;;;;;4981439;28;20470;-68
2020/12/22 06:59:53;;;;;;;1.20;0.90;;;12.90;98.00;;;;;;4990139;28;20501;-69
2020/12/22 07:02:30;;;;;;;1.20;0.90;;;12.80;98.00;;;;;;4949858;28;20473;-68
2020/12/22 07:04:58;;;;;;;1.20;0.93;;;12.80;98.00;;;;;;4994114;28;21039;-68
2020/12/22 07:07:25;;;;;;;1.20;1.00;;;12.80;98.00;;;;;;4996227;28;20462;-68
2020/12/22 07:10:03;;;;;;;1.20;1.00;;;12.80;98.00;;;;;;4994217;28;20468;-68
2020/12/22 07:12:31;;;;;;;1.20;0.90;;;12.80;98.00;;;;;;4995061;28;20459;-68
2020/12/22 07:14:59;;;;;;;1.20;0.90;;;12.80;98.00;;;;;;4994203;28;20458;-68
2020/12/22 07:17:26;;;;;;;1.20;1.00;;;12.90;98.00;;;;;;4995959;28;20465;-70
2020/12/22 07:19:55;;;;;;;1.20;1.00;;;12.90;98.00;;;;;;4993955;28;20532;-68
2020/12/22 07:22:23;;;;;;;1.20;1.00;;;12.90;98.00;;;;;;4995733;28;20540;-68
2020/12/22 07:24:51;;;;;;;1.20;0.90;;;12.90;98.00;;;;;;4994333;28;20961;-69
2020/12/22 07:27:17;;;;;;;1.20;0.90;;;13.00;98.00;;;;;;4995789;28;20536;-69
2020/12/22 07:29:44;;;;;;;1.20;0.90;;;13.00;98.00;;;;;;4993932;28;20481;-70
2020/12/22 07:32:11;;;;;;;1.20;1.10;;;12.90;98.00;;;;;;4994346;28;20461;-69
2020/12/22 07:34:39;;;;;;;1.20;1.00;;;12.90;98.00;;;;;;4993506;28;20553;-70
2020/12/22 07:37:08;;;;;;;1.20;0.90;;;12.90;98.00;;;;;;4995539;28;20472;-69
2020/12/22 07:39:35;;;;;;;1.20;1.00;;;13.00;98.00;;;;;;4993320;28;20484;-68
2020/12/22 07:42:10;;;;;;;1.20;1.00;;;13.00;98.00;;;;;;4995357;28;20458;-69
2020/12/22 07:44:38;;;;;;;1.20;1.00;;;13.10;98.00;;;;;;4993108;28;20470;-70
2020/12/22 07:47:04;;;;;;;1.20;1.00;;;13.10;98.00;;;;;;4995453;28;20513;-68
2020/12/22 07:49:36;;;;;;;1.20;1.00;;;13.20;98.00;;;;;;4993154;28;20463;-68
2020/12/22 07:52:03;;;;;;;1.20;1.00;;;13.20;98.00;;;;;;4995350;28;20967;-68
2020/12/22 07:54:30;;;;;;;1.20;1.00;;;13.30;98.00;;;;;;4993104;28;20523;-69
2020/12/22 07:56:58;;;;;;;1.20;1.10;;;13.30;98.00;;;;;;4995055;28;21099;-69
2020/12/22 07:59:26;;;;;;;1.20;0.90;;;13.30;98.00;;;;;;4992864;28;20487;-69
2020/12/22 08:01:54;;;;;;;1.20;1.00;;;13.30;98.00;;;;;;4994985;28;20501;-70
2020/12/22 08:04:26;;;;;;;1.20;1.00;;;13.20;98.00;;;;;;4992833;28;20458;-68
2020/12/22 08:06:54;;;;;;;1.20;1.00;;;13.20;98.00;;;;;;4994890;28;20467;-68
2020/12/22 08:09:37;;;;;;;1.20;1.00;;;13.20;98.00;;;;;;4992806;28;20463;-67
2020/12/22 08:12:04;;;;;;;1.20;1.00;;;13.30;98.00;;;;;;4993777;28;20501;-67
2020/12/22 08:14:34;;;;;;;1.20;1.00;;;13.30;98.00;;;;;;4992463;28;20453;-68
2020/12/22 08:17:02;;;;;;;1.20;1.00;;;13.20;98.00;;;;;;4994605;28;20957;-68
2020/12/22 08:19:30;;;;;;;1.20;1.00;;;13.30;98.00;;;;;;4992550;28;20719;-68
2020/12/22 08:21:59;;;;;;;1.20;1.00;;;13.30;98.00;;;;;;4994440;28;20540;-68
2020/12/22 08:24:29;;;;;;;1.20;1.10;;;13.30;98.00;;;;;;4992678;28;20473;-68
2020/12/22 08:26:56;;;;;;;1.20;1.10;;;13.60;98.00;;;;;;4994777;28;20465;-68
2020/12/22 08:29:24;;;;;;;1.20;1.10;;;13.90;98.00;;;;;;4991407;28;20484;-71
2020/12/22 08:31:55;;;;;;;1.20;1.10;;;;;;;;;;4991635;28;21125;-67
2020/12/22 08:34:28;;;;;;;1.30;1.30;;;14.20;98.00;;;;;;4991965;28;20877;-68
2020/12/22 08:36:54;;;;;;;1.20;1.00;;;14.20;98.00;;;;;;4992680;28;20471;-69
2020/12/22 08:39:22;;;;;;;1.20;1.00;;;14.30;98.00;;;;;;4991387;28;20496;-68
2020/12/22 08:41:51;;;;;;;1.20;1.00;;;14.50;98.00;;;;;;4993703;28;20466;-68
2020/12/22 08:44:18;;;;;;;1.20;1.10;;;14.70;98.00;;;;;;4991581;28;20471;-69
2020/12/22 08:46:46;;;;;;;1.20;1.00;;;14.70;98.00;;;;;;4993875;28;20467;-66
2020/12/22 08:49:15;;;;;;;2.47;1.13;;;14.50;98.00;;;;;;4993306;28;20553;-66
2020/12/22 08:51:43;;;;;;;1.20;1.10;;;14.40;98.00;;;;;;4993613;28;20466;-69
2020/12/22 08:54:10;;;;;;;1.50;1.10;;;14.20;98.00;;;;;;4993345;28;20883;-66
2020/12/22 08:56:37;;;;;;;1.20;1.00;;;14.10;98.00;;;;;;4990496;28;20762;-68
2020/12/22 08:59:05;;;;;;;1.20;1.00;;;14.00;98.00;;;;;;4993473;28;20471;-68
2020/12/22 09:01:40;;;;;;;1.20;1.00;;;13.90;98.00;;;;;;4991367;28;20489;-67
2020/12/22 09:04:07;;;;;;;1.20;1.10;;;14.10;98.00;;;;;;4993241;28;20793;-68
2020/12/22 09:06:45;;;;;;;1.20;0.90;;;14.40;98.00;;;;;;4974103;28;20475;-68
2020/12/22 09:09:15;;;;;;;1.20;1.00;;;14.90;98.00;;;;;;4993336;28;20455;-69
2020/12/22 09:11:42;;;;;;;1.20;1.10;;;15.40;98.00;;;;;;4992411;28;20457;-68
2020/12/22 09:14:11;;;;;;;1.20;1.00;;;15.70;98.00;;;;;;4991660;28;20492;-68
2020/12/22 09:16:45;;;;;;;1.20;1.10;;;15.90;98.00;;;;;;4991514;28;20469;-67
2020/12/22 09:19:11;;;;;;;1.20;1.07;;;15.90;98.00;;;;;;4992913;28;20457;-69
2020/12/22 09:21:38;;;;;;;1.20;1.00;;;15.70;98.00;;;;;;4991120;28;20951;-67
2020/12/22 09:24:06;;;;;;;1.20;1.00;;;15.60;98.00;;;;;;4992571;28;20577;-68
2020/12/22 09:26:33;;;;;;;1.20;1.00;;;15.20;98.00;;;;;;4990871;28;20459;-67
2020/12/22 09:29:00;;;;;;;1.20;1.20;;;14.80;98.00;;;;;;4992954;28;20546;-70
2020/12/22 09:31:28;;;;;;;1.20;1.07;;;14.60;98.00;;;;;;4990862;28;20471;-66
2020/12/22 09:33:54;;;;;;;1.20;1.00;;;14.50;98.00;;;;;;4991482;28;20472;-66
2020/12/22 09:36:21;;;;;;;1.63;1.20;;;14.30;98.00;;;;;;4990991;28;20459;-67
2020/12/22 09:38:48;;;;;;;1.20;1.00;;;14.30;98.00;;;;;;4993059;28;20970;-67
2020/12/22 09:41:15;;;;;;;1.60;1.27;;;14.20;98.00;;;;;;4990629;28;20495;-69
2020/12/22 09:43:42;;;;;;;1.20;1.00;;;14.20;98.00;;;;;;4992645;28;21024;-67
2020/12/22 09:46:08;;;;;;;1.20;1.00;;;14.20;98.00;;;;;;4990093;28;20471;-67
2020/12/22 09:48:35;;;;;;;1.30;1.10;;;14.20;98.00;;;;;;4992485;28;20464;-69
2020/12/22 09:51:01;;;;;;;1.20;1.00;;;14.20;98.00;;;;;;4990530;28;20466;-68
2020/12/22 09:53:28;;;;;;;1.20;0.93;;;14.10;98.00;;;;;;4992192;28;20533;-67
2020/12/22 09:55:54;;;;;;;1.20;1.00;;;14.10;98.00;;;;;;4990436;28;20467;-67
2020/12/22 09:58:22;;;;;;;2.07;1.40;;;14.10;98.00;;;;;;4992385;28;20520;-67
2020/12/22 10:00:48;;;;;;;1.20;1.00;;;14.00;98.00;;;;;;4988957;28;20487;-67
2020/12/22 10:03:15;;;;;;;1.20;1.00;;;13.90;98.00;;;;;;4992003;28;20490;-67
2020/12/22 10:05:41;;;;;;;1.20;1.00;;;13.80;98.00;;;;;;4988586;28;20874;-66
2020/12/22 10:08:08;;;;;;;1.20;0.90;;;13.70;98.00;;;;;;4992165;28;20915;-67
2020/12/22 10:10:34;;;;;;;1.20;1.00;;;13.70;98.00;;;;;;4989987;28;20533;-67
2020/12/22 10:13:01;;;;;;;1.20;1.00;;;13.60;98.00;;;;;;4991884;28;20484;-68
2020/12/22 10:15:28;;;;;;;1.20;0.90;;;13.50;98.00;;;;;;4989887;28;20549;-66
2020/12/22 10:17:55;;;;;;;1.20;1.00;;;13.50;98.00;;;;;;4992013;28;20940;-66
2020/12/22 10:20:21;;;;;;;1.20;0.97;;;13.50;98.00;;;;;;4988548;28;21033;-66
2020/12/22 10:22:47;;;;;;;1.20;1.07;;;13.50;98.00;;;;;;4991401;28;20469;-66
2020/12/22 10:25:15;;;;;;;1.20;1.00;;;13.50;98.00;;;;;;4989739;28;20441;-68
2020/12/22 10:27:41;;;;;;;1.53;1.00;;;13.60;98.00;;;;;;4991869;28;20471;-67
2020/12/22 10:30:08;;;;;;;1.20;1.00;;;13.60;98.00;;;;;;4989683;28;20460;-67
2020/12/22 10:32:35;;;;;;;1.20;1.00;;;13.70;98.00;;;;;;4990527;28;20468;-67
2020/12/22 10:35:02;;;;;;;1.20;1.00;;;13.70;98.00;;;;;;4989040;28;20496;-67
2020/12/22 10:37:28;;;;;;;1.67;1.30;;;13.80;98.00;;;;;;4990938;28;20465;-66
2020/12/22 10:39:55;;;;;;;1.20;1.00;;;13.80;98.00;;;;;;4989332;28;20518;-69
2020/12/22 10:42:21;;;;;;;1.20;1.00;;;13.90;98.00;;;;;;4989521;28;20490;-69
2020/12/22 10:44:47;;;;;;;1.20;0.90;;;13.90;98.00;;;;;;4989152;28;20465;-67
2020/12/22 10:47:14;;;;;;;1.20;1.00;;;13.90;98.00;;;;;;4990949;28;20471;-67
2020/12/22 10:49:41;;;;;;;1.20;1.00;;;13.90;98.00;;;;;;4989134;28;20458;-67
2020/12/22 10:52:08;;;;;;;1.20;1.00;;;;;;;;;;4990818;28;20512;-67
2020/12/22 10:54:35;;;;;;;1.20;1.00;;;14.00;98.00;;;;;;4988207;28;20471;-67
2020/12/22 10:57:01;;;;;;;1.20;1.10;;;14.00;98.00;;;;;;4990811;28;20466;-67
2020/12/22 10:59:28;;;;;;;1.20;1.00;;;14.00;98.00;;;;;;4989764;28;20988;-66
2020/12/22 11:01:56;;;;;;;1.20;1.00;;;14.00;98.00;;;;;;4990909;28;20473;-66
2020/12/22 11:04:23;;;;;;;1.20;1.10;;;14.00;98.00;;;;;;4990913;28;20931;-66
2020/12/22 11:07:00;;;;;;;1.20;0.90;;;14.00;98.00;;;;;;4989089;28;20465;-66
2020/12/22 11:09:27;;;;;;;1.20;1.00;;;14.00;98.00;;;;;;4990758;28;20488;-65
2020/12/22 11:11:54;;;;;;;1.20;0.93;;;14.00;98.00;;;;;;4990157;28;20470;-65
2020/12/22 11:14:20;;;;;;;1.20;0.93;;;14.00;98.00;;;;;;4990862;28;20498;-66
2020/12/22 11:16:48;;;;;;;1.20;1.00;;;14.00;98.00;;;;;;4988977;28;20972;-67
2020/12/22 11:19:15;;;;;;;1.20;0.90;;;14.10;98.00;;;;;;4989498;28;20465;-67
2020/12/22 11:21:43;;;;;;;1.20;1.00;;;14.10;98.00;;;;;;4989278;28;20463;-66
2020/12/22 11:24:10;;;;;;;1.20;1.00;;;14.10;98.00;;;;;;4991110;28;20475;-67
2020/12/22 11:26:37;;;;;;;1.50;1.20;;;14.10;98.00;;;;;;4989251;28;21025;-66
2020/12/22 11:29:04;;;;;;;1.20;0.90;;;14.10;98.00;;;;;;4991599;28;20489;-66
2020/12/22 11:31:38;;;;;;;1.20;1.10;;;14.10;98.00;;;;;;4989270;28;20466;-66
2020/12/22 11:34:05;;;;;;;1.20;1.00;;;14.20;98.00;;;;;;4991108;28;20591;-66
2020/12/22 11:36:31;;;;;;;1.20;1.10;;;14.20;98.00;;;;;;4989311;28;20506;-67
2020/12/22 11:38:58;;;;;;;1.20;1.00;;;14.20;98.00;;;;;;4991059;28;20471;-67
2020/12/22 11:41:25;;;;;;;1.20;0.90;;;14.10;98.00;;;;;;4989206;28;20572;-66
2020/12/22 11:43:52;;;;;;;1.20;1.00;;;14.10;98.00;;;;;;4990489;28;20462;-66
2020/12/22 11:46:23;;;;;;;1.20;1.00;;;14.20;98.00;;;;;;4989278;28;20462;-66
2020/12/22 11:48:50;;;;;;;1.20;0.90;;;14.20;98.00;;;;;;4993380;28;20467;-67
2020/12/22 11:51:16;;;;;;;1.20;1.10;;;14.20;98.00;;;;;;4992809;28;20498;-66
2020/12/22 11:53:43;;;;;;;1.20;1.10;;;14.30;98.00;;;;;;4977011;28;20469;-68
2020/12/22 11:56:11;;;;;;;1.40;1.40;;;14.20;98.00;;;;;;4992500;28;20835;-67
2020/12/22 11:58:38;;;;;;;1.20;1.00;;;14.20;98.00;;;;;;4994566;28;20474;-66
2020/12/22 12:01:08;;;;;;;1.20;0.90;;;14.20;98.00;;;;;;4992502;28;21075;-67
2020/12/22 12:03:35;;;;;;;1.20;0.93;;;14.20;98.00;;;;;;4994356;28;20493;-66
2020/12/22 12:06:03;;;;;;;1.20;1.00;;;14.20;98.00;;;;;;4991234;28;20461;-67
2020/12/22 12:08:30;;;;;;;1.20;1.00;;;14.20;98.00;;;;;;4994300;28;20467;-67
2020/12/22 12:10:57;;;;;;;1.20;1.00;;;14.20;98.00;;;;;;4992307;28;20965;-67
2020/12/22 12:13:24;;;;;;;1.20;1.00;;;14.20;98.00;;;;;;4992935;28;20463;-67
2020/12/22 12:15:51;;;;;;;1.20;1.10;;;14.20;98.00;;;;;;4992031;28;20466;-68
2020/12/22 12:18:18;;;;;;;1.20;0.90;;;14.30;98.00;;;;;;4994158;28;20503;-67
2020/12/22 12:20:44;;;;;;;1.20;1.00;;;14.30;98.00;;;;;;4992308;28;20490;-66
2020/12/22 12:23:11;;;;;;;1.20;0.90;;;14.30;98.00;;;;;;4993789;28;20478;-66
2020/12/22 12:25:37;;;;;;;1.20;1.10;;;14.30;98.00;;;;;;4992492;28;20455;-67
2020/12/22 12:28:04;;;;;;;1.20;0.90;;;14.30;98.00;;;;;;4994196;28;20522;-68
2020/12/22 12:30:31;;;;;;;1.20;1.00;;;14.30;98.00;;;;;;4991923;28;20491;-68
2020/12/22 12:33:00;;;;;;;1.20;1.03;;;14.30;98.00;;;;;;4993634;28;20467;-67
2020/12/22 12:35:27;;;;;;;1.20;1.00;;;14.30;98.00;;;;;;4991589;28;20472;-66
2020/12/22 12:37:54;;;;;;;1.20;1.00;;;14.30;98.00;;;;;;4993318;28;20738;-67
2020/12/22 12:40:21;;;;;;;1.20;1.03;;;14.30;98.00;;;;;;4991053;28;20496;-67
2020/12/22 12:42:48;;;;;;;1.20;1.00;;;14.30;98.00;;;;;;4993159;28;20463;-67
2020/12/22 12:45:14;;;;;;;1.20;1.10;;;14.30;98.00;;;;;;4991710;28;20467;-67
2020/12/22 12:47:41;;;;;;;1.20;1.10;;;14.30;98.00;;;;;;4993915;28;20474;-67
2020/12/22 12:50:09;;;;;;;1.20;1.00;;;14.30;98.00;;;;;;4991204;28;20499;-68
2020/12/22 12:52:39;;;;;;;1.20;1.00;;;14.30;98.00;;;;;;4993386;28;20504;-66